createdAt,value
2019-05-28T00:01:08.469Z,27.40
2019-05-28T00:03:38.594Z,27.40
2019-05-28T00:06:09.095Z,27.40
2019-05-28T00:08:39.579Z,27.40
2019-05-28T00:11:10.492Z,27.40
2019-05-28T00:13:40.647Z,27.40
2019-05-28T00:16:11.077Z,27.50
2019-05-28T00:18:41.163Z,27.50
2019-05-28T00:21:11.350Z,27.60
2019-05-28T00:23:41.760Z,27.60
2019-05-28T00:26:12.081Z,27.70
2019-05-28T00:28:42.513Z,27.70
2019-05-28T00:31:12.737Z,27.70
2019-05-28T00:33:42.980Z,27.80
2019-05-28T00:36:13.295Z,27.90
2019-05-28T00:38:44.352Z,28.00
2019-05-28T00:41:14.746Z,28.00
2019-05-28T00:43:45.021Z,28.00
2019-05-28T00:46:15.511Z,28.00
2019-05-28T00:48:45.805Z,28.10
2019-05-28T00:51:16.131Z,28.20
2019-05-28T00:53:46.706Z,28.10
2019-05-28T00:56:17.060Z,28.30
2019-05-28T00:58:48.148Z,28.40
2019-05-28T01:01:18.496Z,28.40
2019-05-28T01:03:48.668Z,28.50
2019-05-28T01:06:19.080Z,28.50
2019-05-28T01:08:49.498Z,28.60
2019-05-28T01:11:19.601Z,28.60
2019-05-28T01:13:50.404Z,28.60
2019-05-28T01:16:20.602Z,28.60
2019-05-28T01:18:50.701Z,28.70
2019-05-28T01:21:20.984Z,28.70
2019-05-28T01:23:51.575Z,28.70
2019-05-28T01:26:21.855Z,28.80
2019-05-28T01:28:52.309Z,28.80
2019-05-28T01:31:22.625Z,28.90
2019-05-28T01:33:52.963Z,28.90
2019-05-28T01:36:23.183Z,28.90
2019-05-28T01:38:54.075Z,28.90
2019-05-28T01:41:24.686Z,28.90
2019-05-28T01:43:54.913Z,28.90
2019-05-28T01:46:25.222Z,28.90
2019-05-28T01:48:55.468Z,28.90
2019-05-28T01:51:25.630Z,28.90
2019-05-28T01:53:55.942Z,29.00
2019-05-28T01:56:26.986Z,29.00
2019-05-28T01:58:57.325Z,29.00
2019-05-28T02:01:28.078Z,29.10
2019-05-28T02:03:58.401Z,29.20
2019-05-28T02:06:28.510Z,29.30
2019-05-28T02:08:59.148Z,29.30
2019-05-28T02:11:29.574Z,29.40
2019-05-28T02:13:59.752Z,29.50
2019-05-28T02:16:30.245Z,29.50
2019-05-28T02:19:00.440Z,29.50
2019-05-28T02:21:30.733Z,29.60
2019-05-28T02:24:01.245Z,29.70
2019-05-28T02:26:31.890Z,29.70
2019-05-28T02:29:02.465Z,29.80
2019-05-28T02:31:33.483Z,29.80
2019-05-28T02:34:04.568Z,29.90
2019-05-28T02:36:34.765Z,29.90
2019-05-28T02:39:06.464Z,29.90
2019-05-28T02:41:36.643Z,29.90
2019-05-28T02:44:07.426Z,30.00
2019-05-28T02:46:37.686Z,30.00
2019-05-28T02:49:08.107Z,30.10
2019-05-28T02:51:38.821Z,30.10
2019-05-28T02:54:09.645Z,30.10
2019-05-28T02:56:41.314Z,30.20
2019-05-28T02:59:14.459Z,30.20
2019-05-28T03:01:46.171Z,30.20
2019-05-28T03:04:17.226Z,30.30
2019-05-28T03:06:49.758Z,30.30
2019-05-28T03:09:21.874Z,30.40
2019-05-28T03:11:53.586Z,30.30
2019-05-28T03:14:24.091Z,30.60
2019-05-28T03:16:57.295Z,30.70
2019-05-28T03:19:28.971Z,30.70
2019-05-28T03:22:02.208Z,30.80
2019-05-28T03:24:34.546Z,30.90
2019-05-28T03:27:04.991Z,31.00
2019-05-28T03:29:35.488Z,31.00
2019-05-28T03:32:08.554Z,31.10
2019-05-28T03:34:37.587Z,31.10
2019-05-28T03:37:09.002Z,31.10
2019-05-28T03:39:40.261Z,31.20
2019-05-28T03:42:10.675Z,31.10
2019-05-28T03:44:41.957Z,31.20
2019-05-28T03:47:12.173Z,31.20
2019-05-28T03:49:42.532Z,31.20
2019-05-28T03:52:12.901Z,31.20
2019-05-28T03:54:43.515Z,31.30
2019-05-28T03:57:13.874Z,31.30
2019-05-28T03:59:44.434Z,31.30
2019-05-28T04:02:23.314Z,31.50
2019-05-28T04:04:46.530Z,31.60
2019-05-28T04:07:16.979Z,31.70
2019-05-28T04:09:47.825Z,31.90
2019-05-28T04:12:18.113Z,32.00
2019-05-28T04:14:48.662Z,32.10
2019-05-28T04:17:19.067Z,32.20
2019-05-28T04:19:49.392Z,32.20
2019-05-28T04:22:19.902Z,32.30
2019-05-28T04:24:50.137Z,32.30
2019-05-28T04:27:20.467Z,32.30
2019-05-28T04:29:51.200Z,32.40
2019-05-28T04:32:21.537Z,32.40
2019-05-28T04:34:54.880Z,32.40
2019-05-28T04:37:25.241Z,32.40
2019-05-28T04:39:55.627Z,32.50
2019-05-28T04:42:26.075Z,32.50
2019-05-28T04:44:56.504Z,32.50
2019-05-28T04:47:27.388Z,32.40
2019-05-28T04:49:57.708Z,32.40
2019-05-28T04:52:30.662Z,32.40
2019-05-28T04:54:59.689Z,32.50
2019-05-28T04:57:30.525Z,32.60
2019-05-28T05:00:02.481Z,32.60
2019-05-28T05:02:33.264Z,32.70
2019-05-28T05:05:03.662Z,32.80
2019-05-28T05:07:34.102Z,32.90
2019-05-28T05:10:04.978Z,32.90
2019-05-28T05:12:35.300Z,32.90
2019-05-28T05:15:06.877Z,32.80
2019-05-28T05:17:37.368Z,32.80
2019-05-28T05:20:08.911Z,32.80
2019-05-28T05:22:39.442Z,32.90
2019-05-28T05:25:09.952Z,33.00
2019-05-28T05:27:40.353Z,32.90
2019-05-28T05:30:10.882Z,33.00
2019-05-28T05:32:41.289Z,33.20
2019-05-28T05:35:11.701Z,33.20
2019-05-28T05:37:42.033Z,33.20
2019-05-28T05:40:14.141Z,33.20
2019-05-28T05:42:44.561Z,33.20
2019-05-28T05:45:15.140Z,33.20
2019-05-28T05:47:45.477Z,33.30
2019-05-28T05:50:16.314Z,33.40
2019-05-28T05:54:27.889Z,33.50
2019-05-28T05:56:58.204Z,33.60
2019-05-28T05:59:28.391Z,33.60
2019-05-28T06:01:58.823Z,33.70
2019-05-28T06:04:29.009Z,33.70
2019-05-28T06:06:59.229Z,33.70
2019-05-28T06:09:29.561Z,33.70
2019-05-28T06:11:59.766Z,33.60
2019-05-28T06:14:30.102Z,33.50
2019-05-28T06:17:00.441Z,33.40
2019-05-28T06:19:30.919Z,33.30
2019-05-28T06:22:01.480Z,33.10
2019-05-28T06:24:31.754Z,33.00
2019-05-28T06:27:02.092Z,32.80
2019-05-28T06:29:32.683Z,32.70
2019-05-28T06:32:02.909Z,32.60
2019-05-28T06:34:33.210Z,32.50
2019-05-28T06:37:03.654Z,32.40
2019-05-28T06:39:34.116Z,32.20
2019-05-28T06:42:04.655Z,32.10
2019-05-28T06:44:34.996Z,31.90
2019-05-28T06:47:05.471Z,31.70
2019-05-28T06:49:35.749Z,31.60
2019-05-28T06:52:06.141Z,31.50
2019-05-28T06:54:36.647Z,31.40
2019-05-28T06:57:21.926Z,31.30
2019-05-28T06:59:38.819Z,31.30
2019-05-28T07:02:09.197Z,31.20
2019-05-28T07:04:39.574Z,31.10
2019-05-28T07:07:09.741Z,31.00
2019-05-28T07:09:40.093Z,30.80
2019-05-28T07:12:10.290Z,30.50
2019-05-28T07:14:40.795Z,30.20
2019-05-28T07:17:11.298Z,29.80
2019-05-28T07:19:41.690Z,29.30
2019-05-28T07:22:12.280Z,28.80
2019-05-28T07:24:42.589Z,28.50
2019-05-28T07:27:12.993Z,28.30
2019-05-28T07:29:43.252Z,28.10
2019-05-28T07:32:13.591Z,28.00
2019-05-28T07:34:43.972Z,27.90
2019-05-28T07:37:14.315Z,27.90
2019-05-28T07:39:46.040Z,27.70
2019-05-28T07:42:31.718Z,27.60
2019-05-28T07:44:48.710Z,27.60
2019-05-28T07:47:19.084Z,27.50
2019-05-28T07:49:49.573Z,27.40
2019-05-28T07:52:19.851Z,27.40
2019-05-28T07:54:50.345Z,27.40
2019-05-28T07:57:21.072Z,27.50
2019-05-28T07:59:51.236Z,27.50
2019-05-28T08:02:21.544Z,27.60
2019-05-28T08:04:51.966Z,27.60
2019-05-28T08:07:22.409Z,27.60
2019-05-28T08:09:52.953Z,27.60
2019-05-28T08:12:23.326Z,27.70
2019-05-28T08:14:53.521Z,27.80
2019-05-28T08:17:23.900Z,27.90
2019-05-28T08:19:54.188Z,27.90
2019-05-28T08:22:38.723Z,28.00
2019-05-28T08:24:56.107Z,28.10
2019-05-28T08:27:26.439Z,28.30
2019-05-28T08:29:56.934Z,28.30
2019-05-28T08:32:27.377Z,28.40
2019-05-28T08:35:05.679Z,28.50
2019-05-28T08:37:29.929Z,28.50
2019-05-28T08:40:00.563Z,28.60
2019-05-28T08:42:31.327Z,28.60
2019-05-28T08:45:01.632Z,28.70
2019-05-28T08:47:31.790Z,28.70
2019-05-28T08:50:02.137Z,28.70
2019-05-28T08:52:32.297Z,28.70
2019-05-28T08:55:02.725Z,28.70
2019-05-28T08:57:33.019Z,28.80
2019-05-28T09:02:51.974Z,28.80
2019-05-28T09:05:26.515Z,28.80
2019-05-28T09:07:53.835Z,28.70
2019-05-28T09:10:24.210Z,28.60
2019-05-28T09:12:54.467Z,28.50
2019-05-28T09:15:24.749Z,28.30
2019-05-28T09:17:55.053Z,28.20
2019-05-28T09:21:33.924Z,28.10
2019-05-28T09:24:04.272Z,28.00
2019-05-28T09:26:34.447Z,28.00
2019-05-28T09:29:04.806Z,28.00
2019-05-28T09:31:35.323Z,27.90
2019-05-28T09:34:05.859Z,27.90
2019-05-28T09:36:36.188Z,27.80
2019-05-28T09:39:08.666Z,27.80
2019-05-28T09:41:38.974Z,27.80
2019-05-28T09:44:09.376Z,27.70
2019-05-28T09:46:39.639Z,27.80
2019-05-28T09:49:09.987Z,27.70
2019-05-28T09:51:40.349Z,27.70
2019-05-28T09:54:10.900Z,27.60
2019-05-28T09:56:41.697Z,27.60
2019-05-28T09:59:12.061Z,27.60
2019-05-28T10:01:42.576Z,27.50
2019-05-28T10:06:13.416Z,27.50
2019-05-28T10:08:29.060Z,27.40
2019-05-28T10:10:59.564Z,27.50
2019-05-28T10:13:38.846Z,27.50
2019-05-28T10:16:01.632Z,27.50
2019-05-28T10:18:32.044Z,27.40
2019-05-28T10:21:16.983Z,27.30
2019-05-28T10:23:34.000Z,27.20
2019-05-28T10:26:04.353Z,27.10
2019-05-28T10:28:34.639Z,27.00
2019-05-28T10:31:05.269Z,26.90
2019-05-28T10:33:35.608Z,26.90
2019-05-28T10:36:06.236Z,26.90
2019-05-28T10:38:36.983Z,26.80
2019-05-28T10:41:07.502Z,26.70
2019-05-28T10:43:37.996Z,26.60
2019-05-28T10:46:08.515Z,26.60
2019-05-28T10:48:39.017Z,26.60
2019-05-28T10:51:09.385Z,26.50
2019-05-28T10:53:39.896Z,26.50
2019-05-28T10:56:10.323Z,26.50
2019-05-28T10:58:40.782Z,26.30
2019-05-28T11:01:11.144Z,26.20
2019-05-28T11:03:41.405Z,26.20
2019-05-28T11:06:11.711Z,26.20
2019-05-28T11:08:42.006Z,26.20
2019-05-28T11:11:12.480Z,26.20
2019-05-28T11:13:52.653Z,26.20
2019-05-28T11:16:14.505Z,26.20
2019-05-28T11:18:44.789Z,26.20
2019-05-28T11:21:15.103Z,26.20
2019-05-28T11:23:45.297Z,26.30
2019-05-28T11:26:15.659Z,26.30
2019-05-28T11:28:45.968Z,26.30
2019-05-28T11:31:16.459Z,26.40
2019-05-28T11:33:46.819Z,26.40
2019-05-28T11:36:17.106Z,26.40
2019-05-28T11:38:47.297Z,26.40
2019-05-28T11:41:17.890Z,26.40
2019-05-28T11:43:48.257Z,26.40
2019-05-28T11:46:18.502Z,26.50
2019-05-28T11:48:48.878Z,26.50
2019-05-28T11:51:19.537Z,26.50
2019-05-28T11:53:49.834Z,26.50
2019-05-28T11:56:20.021Z,26.50
2019-05-28T11:58:50.266Z,26.50
2019-05-28T12:01:33.782Z,26.50
2019-05-28T12:03:52.522Z,26.50
2019-05-28T12:06:22.943Z,26.50
2019-05-28T12:08:53.459Z,26.50
2019-05-28T12:11:23.753Z,26.50
2019-05-28T12:13:54.036Z,26.50
2019-05-28T12:16:24.454Z,26.50
2019-05-28T12:18:58.215Z,26.50
2019-05-28T12:21:26.456Z,26.50
2019-05-28T12:23:56.788Z,26.50
2019-05-28T12:26:27.096Z,26.40
2019-05-28T12:28:57.415Z,26.40
2019-05-28T12:31:27.717Z,26.40
2019-05-28T12:33:58.154Z,26.40
2019-05-28T12:36:28.203Z,26.40
2019-05-28T12:38:58.427Z,26.40
2019-05-28T12:41:28.842Z,26.40
2019-05-28T12:43:59.311Z,26.30
2019-05-28T12:46:29.668Z,26.30
2019-05-28T12:48:59.951Z,26.30
2019-05-28T12:51:30.465Z,26.30
2019-05-28T12:54:00.716Z,26.30
2019-05-28T12:56:31.024Z,26.20
2019-05-28T12:59:01.193Z,26.20
2019-05-28T13:01:31.499Z,26.20
2019-05-28T13:04:01.759Z,26.20
2019-05-28T13:06:32.022Z,26.30
2019-05-28T13:09:02.284Z,26.30
2019-05-28T13:11:32.637Z,26.30
2019-05-28T13:14:02.915Z,26.30
2019-05-28T13:16:33.288Z,26.20
2019-05-28T13:19:03.469Z,26.20
2019-05-28T13:21:33.709Z,26.20
2019-05-28T13:24:04.051Z,26.20
2019-05-28T13:26:34.534Z,26.20
2019-05-28T13:29:04.793Z,26.20
2019-05-28T13:31:35.200Z,26.20
2019-05-28T13:34:06.138Z,26.20
2019-05-28T13:36:36.561Z,26.20
2019-05-28T13:39:08.776Z,26.10
2019-05-28T13:41:39.364Z,26.20
2019-05-28T13:44:09.861Z,26.20
2019-05-28T13:46:41.590Z,26.10
2019-05-28T13:49:11.784Z,26.20
2019-05-28T13:51:42.132Z,26.10
2019-05-28T13:54:12.288Z,26.10
2019-05-28T13:56:42.763Z,26.10
2019-05-28T13:59:13.029Z,26.10
2019-05-28T14:01:43.215Z,26.10
2019-05-28T14:04:13.416Z,26.10
2019-05-28T14:06:44.703Z,26.10
2019-05-28T14:09:15.299Z,26.10
2019-05-28T14:11:45.759Z,26.10
2019-05-28T14:14:15.983Z,26.10
2019-05-28T14:16:46.362Z,26.10
2019-05-28T14:19:16.593Z,26.10
2019-05-28T14:21:47.029Z,26.10
2019-05-28T14:24:17.354Z,26.10
2019-05-28T14:26:47.609Z,26.10
2019-05-28T14:29:17.842Z,26.10
2019-05-28T14:31:48.111Z,26.20
2019-05-28T14:34:18.157Z,26.20
2019-05-28T14:36:48.500Z,26.20
2019-05-28T14:39:19.216Z,26.20
2019-05-28T14:41:49.445Z,26.20
2019-05-28T14:44:19.600Z,26.20
2019-05-28T14:46:50.018Z,26.20
2019-05-28T14:49:20.303Z,26.30
2019-05-28T14:51:50.493Z,26.30
2019-05-28T14:54:20.723Z,26.30
2019-05-28T14:56:51.065Z,26.30
2019-05-28T14:59:21.352Z,26.30
2019-05-28T15:01:51.638Z,26.30
2019-05-28T15:04:22.340Z,26.30
2019-05-28T15:06:52.942Z,26.30
2019-05-28T15:09:23.330Z,26.40
2019-05-28T15:11:53.630Z,26.30
2019-05-28T15:14:23.772Z,26.40
2019-05-28T15:16:54.199Z,26.30
2019-05-28T15:19:24.286Z,26.40
2019-05-28T15:21:54.468Z,26.40
2019-05-28T15:24:24.837Z,26.40
2019-05-28T15:26:55.108Z,26.40
2019-05-28T15:29:25.625Z,26.40
2019-05-28T15:31:55.859Z,26.40
2019-05-28T15:34:26.103Z,26.40
2019-05-28T15:36:56.386Z,26.40
2019-05-28T15:39:38.966Z,26.40
2019-05-28T15:41:58.645Z,26.40
2019-05-28T15:44:29.030Z,26.40
2019-05-28T15:46:59.432Z,26.40
2019-05-28T15:49:29.714Z,26.40
2019-05-28T15:52:07.665Z,26.40
2019-05-28T15:54:32.113Z,26.40
2019-05-28T15:57:02.329Z,26.30
2019-05-28T15:59:32.990Z,26.40
2019-05-28T16:02:03.218Z,26.30
2019-05-28T16:04:33.388Z,26.30
2019-05-28T16:07:03.727Z,26.30
2019-05-28T16:09:34.002Z,26.30
2019-05-28T16:12:04.135Z,26.30
2019-05-28T16:14:34.613Z,26.20
2019-05-28T16:17:04.855Z,26.30
2019-05-28T16:19:35.111Z,26.30
2019-05-28T16:22:05.510Z,26.30
2019-05-28T16:24:35.957Z,26.30
2019-05-28T16:27:06.455Z,26.30
2019-05-28T16:29:36.810Z,26.40
2019-05-28T16:32:06.968Z,26.40
2019-05-28T16:34:37.356Z,26.40
2019-05-28T16:37:07.610Z,26.40
2019-05-28T16:39:38.003Z,26.40
2019-05-28T16:42:08.458Z,26.40
2019-05-28T16:44:38.659Z,26.40
2019-05-28T16:47:16.607Z,26.40
2019-05-28T16:49:40.548Z,26.40
2019-05-28T16:52:10.786Z,26.40
2019-05-28T16:54:41.251Z,26.30
2019-05-28T16:57:11.751Z,26.30
2019-05-28T16:59:42.140Z,26.20
2019-05-28T17:02:12.691Z,26.20
2019-05-28T17:04:42.984Z,26.20
2019-05-28T17:07:12.992Z,26.20
2019-05-28T17:09:43.352Z,26.20
2019-05-28T17:12:13.527Z,26.20
2019-05-28T17:14:43.905Z,26.20
2019-05-28T17:17:14.042Z,26.20
2019-05-28T17:19:44.876Z,26.20
2019-05-28T17:22:15.042Z,26.20
2019-05-28T17:24:45.402Z,26.20
2019-05-28T17:27:16.032Z,26.20
2019-05-28T17:29:49.690Z,26.20
2019-05-28T17:32:17.813Z,26.20
2019-05-28T17:34:48.142Z,26.20
2019-05-28T17:37:18.739Z,26.20
2019-05-28T17:39:49.065Z,26.20
2019-05-28T17:42:19.064Z,26.20
2019-05-28T17:44:49.477Z,26.20
2019-05-28T17:47:19.741Z,26.20
2019-05-28T17:49:50.156Z,26.30
2019-05-28T17:52:20.359Z,26.20
2019-05-28T17:54:50.881Z,26.30
2019-05-28T17:57:21.174Z,26.20
2019-05-28T17:59:51.454Z,26.20
2019-05-28T18:02:21.731Z,26.20
2019-05-28T18:04:52.139Z,26.20
2019-05-28T18:07:22.380Z,26.30
2019-05-28T18:09:52.601Z,26.30
2019-05-28T18:12:22.878Z,26.30
2019-05-28T18:14:53.207Z,26.30
2019-05-28T18:17:23.454Z,26.30
2019-05-28T18:19:53.872Z,26.30
2019-05-28T18:22:24.142Z,26.30
2019-05-28T18:24:54.433Z,26.20
2019-05-28T18:27:24.870Z,26.30
2019-05-28T18:29:55.135Z,26.30
2019-05-28T18:32:25.522Z,26.30
2019-05-28T18:34:55.855Z,26.20
2019-05-28T18:37:26.276Z,26.20
2019-05-28T18:39:56.791Z,26.20
2019-05-28T18:42:27.031Z,26.20
2019-05-28T18:44:57.652Z,26.20
2019-05-28T18:47:27.860Z,26.20
2019-05-28T18:50:03.566Z,26.20
2019-05-28T18:52:29.769Z,26.20
2019-05-28T18:55:00.123Z,26.20
2019-05-28T18:57:30.365Z,26.20
2019-05-28T19:00:00.686Z,26.20
2019-05-28T19:02:31.065Z,26.20
2019-05-28T19:05:01.508Z,26.20
2019-05-28T19:07:31.818Z,26.20
2019-05-28T19:10:02.321Z,26.30
2019-05-28T19:12:32.549Z,26.20
2019-05-28T19:15:02.828Z,26.20
2019-05-28T19:17:33.197Z,26.20
2019-05-28T19:20:03.564Z,26.20
2019-05-28T19:22:33.653Z,26.20
2019-05-28T19:25:03.978Z,26.20
2019-05-28T19:27:35.683Z,26.20
2019-05-28T19:30:08.989Z,26.20
2019-05-28T19:32:39.207Z,26.20
2019-05-28T19:35:11.167Z,26.20
2019-05-28T19:37:42.319Z,26.20
2019-05-28T19:40:13.252Z,26.20
2019-05-28T19:42:43.651Z,26.20
2019-05-28T19:45:14.242Z,26.20
2019-05-28T19:47:44.762Z,26.10
2019-05-28T19:50:15.155Z,26.10
2019-05-28T19:52:45.372Z,26.10
2019-05-28T19:55:15.640Z,26.20
2019-05-28T19:57:45.920Z,26.20
2019-05-28T20:00:16.705Z,26.10
2019-05-28T20:02:47.022Z,26.10
2019-05-28T20:05:17.631Z,26.10
2019-05-28T20:07:47.914Z,26.20
2019-05-28T20:10:18.638Z,26.20
2019-05-28T20:12:49.145Z,26.20
2019-05-28T20:15:22.516Z,26.20
2019-05-28T20:17:52.471Z,26.20
2019-05-28T20:20:23.231Z,26.20
2019-05-28T20:22:54.008Z,26.20
2019-05-28T20:25:24.420Z,26.20
2019-05-28T20:27:55.944Z,26.20
2019-05-28T20:30:26.550Z,26.20
2019-05-28T20:32:56.935Z,26.20
2019-05-28T20:35:30.847Z,26.20
2019-05-28T20:37:59.585Z,26.20
2019-05-28T20:40:29.976Z,26.20
2019-05-28T20:43:00.300Z,26.20
2019-05-28T20:45:30.685Z,26.10
2019-05-28T20:48:00.919Z,26.20
2019-05-28T20:50:31.252Z,26.10
2019-05-28T20:53:01.698Z,26.10
2019-05-28T20:55:31.748Z,26.10
2019-05-28T20:58:02.256Z,26.10
2019-05-28T21:00:32.774Z,26.20
2019-05-28T21:03:03.181Z,26.10
2019-05-28T21:05:33.525Z,26.10
2019-05-28T21:08:04.061Z,26.10
2019-05-28T21:10:34.359Z,26.20
2019-05-28T21:13:04.884Z,26.20
2019-05-28T21:15:35.327Z,26.20
2019-05-28T21:18:05.850Z,26.20
2019-05-28T21:20:36.267Z,26.20
2019-05-28T21:23:06.535Z,26.20
2019-05-28T21:25:36.800Z,26.20
2019-05-28T21:28:07.184Z,26.20
2019-05-28T21:30:37.702Z,26.20
2019-05-28T21:33:07.881Z,26.20
2019-05-28T21:35:38.185Z,26.20
2019-05-28T21:38:08.478Z,26.20
2019-05-28T21:40:39.848Z,26.20
2019-05-28T21:43:10.144Z,26.20
2019-05-28T21:45:40.334Z,26.20
2019-05-28T21:48:10.720Z,26.20
2019-05-28T21:50:40.916Z,26.20
2019-05-28T21:53:11.233Z,26.20
2019-05-28T21:55:41.412Z,26.20
2019-05-28T21:58:11.629Z,26.20
2019-05-28T22:00:48.750Z,26.30
2019-05-28T22:03:19.222Z,26.20
2019-05-28T22:05:49.747Z,26.30
2019-05-28T22:08:20.022Z,26.30
2019-05-28T22:10:51.707Z,26.30
2019-05-28T22:13:22.795Z,26.30
2019-05-28T22:15:53.301Z,26.30
2019-05-28T22:18:23.736Z,26.30
2019-05-28T22:20:54.087Z,26.30
2019-05-28T22:23:24.416Z,26.30
2019-05-28T22:25:54.624Z,26.30
2019-05-28T22:28:25.438Z,26.30
2019-05-28T22:30:55.683Z,26.30
2019-05-28T22:33:26.009Z,26.30
2019-05-28T22:35:57.063Z,26.30
2019-05-28T22:38:27.471Z,26.30
2019-05-28T22:40:58.289Z,26.30
2019-05-28T22:43:31.476Z,26.30
2019-05-28T22:46:01.258Z,26.30
2019-05-28T22:48:31.710Z,26.30
2019-05-28T22:51:01.908Z,26.30
2019-05-28T22:53:32.463Z,26.30
2019-05-28T22:56:04.937Z,26.30
2019-05-28T22:58:34.148Z,26.30
2019-05-28T23:01:04.608Z,26.30
2019-05-28T23:03:34.861Z,26.30
2019-05-28T23:06:05.411Z,26.30
2019-05-28T23:08:35.750Z,26.30
2019-05-28T23:11:06.927Z,26.30
2019-05-28T23:13:46.377Z,26.30
2019-05-28T23:16:10.300Z,26.30
2019-05-28T23:18:40.871Z,26.40
2019-05-28T23:21:11.307Z,26.40
2019-05-28T23:23:41.744Z,26.40
2019-05-28T23:26:11.959Z,26.40
2019-05-28T23:28:42.295Z,26.40
2019-05-28T23:31:12.680Z,26.40
2019-05-28T23:33:42.841Z,26.50
2019-05-28T23:36:13.059Z,26.50
2019-05-28T23:38:43.816Z,26.50
2019-05-28T23:41:13.999Z,26.50
2019-05-28T23:43:44.274Z,26.60
2019-05-28T23:46:14.641Z,26.60
2019-05-28T23:48:44.856Z,26.60
2019-05-28T23:51:15.085Z,26.60
2019-05-28T23:53:45.440Z,26.60
2019-05-28T23:56:15.637Z,26.60
2019-05-28T23:58:45.961Z,26.60
